Time;durP1;ratioP1;P1;durP2;ratioP2;P2;SDS_P1;SDS_P2;PMS_P1;PMS_P2;Temp;Humidity;BMP_temperature;BMP_pressure;BME280_temperature;BME280_humidity;BME280_pressure;Samples;Min_cycle;Max_cycle;Signal;HPM_P1;HPM_P2
2024/04/08 00:03:33;;;;;;;3.22;2.53;;;;;;;;;;10329401;28;20138;-59
2024/04/08 00:08:30;;;;;;;5.05;3.10;;;;;;;;;;10327832;28;20076;-59
2024/04/08 00:13:29;;;;;;;6.00;3.35;;;;;;;;;;10324453;28;20071;-59
2024/04/08 00:18:27;;;;;;;5.05;3.10;;;;;;;;;;10325124;28;20109;-59
2024/04/08 00:23:24;;;;;;;3.83;3.30;;;;;;;;;;10324495;28;20068;-58
2024/04/08 00:28:22;;;;;;;5.63;3.42;;;;;;;;;;10326235;28;20071;-58
2024/04/08 00:33:21;;;;;;;5.45;4.20;;;;;;;;;;10330439;28;20067;-58
2024/04/08 00:38:18;;;;;;;6.55;5.15;;;;;;;;;;10332757;28;20072;-57
2024/04/08 00:43:15;;;;;;;6.60;4.75;;;;;;;;;;10325798;28;20060;-57
2024/04/08 00:48:14;;;;;;;7.03;4.70;;;;;;;;;;10331132;28;20068;-59
2024/04/08 00:53:13;;;;;;;6.53;5.40;;;;;;;;;;10338218;28;20077;-59
2024/04/08 00:58:11;;;;;;;8.65;5.82;;;;;;;;;;10333931;28;20071;-57
2024/04/08 01:03:10;;;;;;;6.80;5.18;;;;;;;;;;10337451;28;20106;-59
2024/04/08 01:08:08;;;;;;;6.65;5.53;;;;;;;;;;10333966;28;20524;-60
2024/04/08 01:13:07;;;;;;;7.60;6.90;;;;;;;;;;10336875;28;20079;-59
2024/04/08 01:18:04;;;;;;;9.63;7.25;;;;;;;;;;10326868;28;20072;-59
2024/04/08 01:23:02;;;;;;;9.30;6.20;;;;;;;;;;10329583;28;20469;-56
2024/04/08 01:28:02;;;;;;;7.32;6.60;;;;;;;;;;10335645;28;20087;-58
2024/04/08 01:32:59;;;;;;;9.43;6.07;;;;;;;;;;10329910;28;20083;-58
2024/04/08 01:37:57;;;;;;;12.13;6.47;;;;;;;;;;10334146;28;20076;-58
2024/04/08 01:42:55;;;;;;;7.55;5.72;;;;;;;;;;10328953;28;20060;-58
2024/04/08 01:47:54;;;;;;;10.13;6.22;;;;;;;;;;10328203;28;20067;-58
2024/04/08 01:52:51;;;;;;;7.35;5.63;;;;;;;;;;10332106;28;20076;-57
2024/04/08 01:57:50;;;;;;;9.98;7.00;;;;;;;;;;10326799;28;20536;-58
2024/04/08 02:02:47;;;;;;;6.38;5.35;;;;;;;;;;10329483;28;20613;-58
2024/04/08 02:07:46;;;;;;;6.68;5.18;;;;;;;;;;10327315;28;20091;-57
2024/04/08 02:12:43;;;;;;;6.53;5.28;;;;;;;;;;10327905;28;20512;-59
2024/04/08 02:17:41;;;;;;;6.53;5.65;;;;;;;;;;10330403;28;20064;-58
2024/04/08 02:22:38;;;;;;;5.25;4.75;;;;;;;;;;10328017;28;20070;-58
2024/04/08 02:27:37;;;;;;;6.15;4.38;;;;;;;;;;10328309;28;20087;-58
2024/04/08 02:32:34;;;;;;;5.70;4.10;;;;;;;;;;10327127;28;20078;-57
2024/04/08 02:37:32;;;;;;;4.85;4.30;;;;;;;;;;10336169;28;20141;-58
2024/04/08 02:42:29;;;;;;;5.90;5.28;;;;;;;;;;10332666;28;20437;-59
2024/04/08 02:47:28;;;;;;;7.43;6.05;;;;;;;;;;10332985;28;20067;-58
2024/04/08 02:52:25;;;;;;;5.93;5.30;;;;;;;;;;10335957;28;20079;-58
2024/04/08 02:57:23;;;;;;;5.70;4.60;;;;;;;;;;10329871;28;20118;-57
2024/04/08 03:02:20;;;;;;;7.55;4.55;;;;;;;;;;10326273;28;20098;-58
2024/04/08 03:07:19;;;;;;;8.27;5.35;;;;;;;;;;10328827;28;20067;-58
2024/04/08 03:12:17;;;;;;;6.50;5.32;;;;;;;;;;10333271;28;20067;-58
2024/04/08 03:17:14;;;;;;;5.15;4.65;;;;;;;;;;10331226;28;20067;-58
2024/04/08 03:22:12;;;;;;;5.90;4.95;;;;;;;;;;10327665;28;20496;-58
2024/04/08 03:27:10;;;;;;;5.25;4.13;;;;;;;;;;10326899;28;20071;-59
2024/04/08 03:32:08;;;;;;;4.47;3.35;;;;;;;;;;10335264;28;20106;-59
2024/04/08 03:37:05;;;;;;;7.43;3.70;;;;;;;;;;10325569;28;20072;-58
2024/04/08 03:42:03;;;;;;;6.50;3.15;;;;;;;;;;10333642;28;20094;-57
2024/04/08 03:47:02;;;;;;;5.90;4.03;;;;;;;;;;10329903;28;20080;-57
2024/04/08 03:52:00;;;;;;;5.88;4.57;;;;;;;;;;10328303;28;20082;-59
2024/04/08 03:56:57;;;;;;;5.43;4.93;;;;;;;;;;10332336;28;20067;-56
2024/04/08 04:01:55;;;;;;;5.10;4.60;;;;;;;;;;10331608;28;20067;-58
2024/04/08 04:06:54;;;;;;;5.97;5.38;;;;;;;;;;10332746;28;20071;-59
2024/04/08 04:11:52;;;;;;;6.65;5.85;;;;;;;;;;10311272;28;20421;-59
2024/04/08 04:16:51;;;;;;;7.20;5.68;;;;;;;;;;10332039;28;20063;-57
2024/04/08 04:21:48;;;;;;;6.72;6.13;;;;;;;;;;10332530;28;20446;-59
2024/04/08 04:26:47;;;;;;;7.85;5.85;;;;;;;;;;10333020;28;20063;-58
2024/04/08 04:31:45;;;;;;;6.10;5.50;;;;;;;;;;10332186;28;20071;-60
2024/04/08 04:36:44;;;;;;;10.55;6.00;;;;;;;;;;10336524;28;20052;-59
2024/04/08 04:41:41;;;;;;;9.38;6.25;;;;;;;;;;10335013;28;20070;-58
2024/04/08 04:46:40;;;;;;;6.75;5.40;;;;;;;;;;10346338;28;20062;-57
2024/04/08 04:51:38;;;;;;;5.22;4.68;;;;;;;;;;10333209;28;20075;-56
2024/04/08 04:56:35;;;;;;;8.15;5.35;;;;;;;;;;10333535;28;20064;-56
2024/04/08 05:01:32;;;;;;;6.10;5.50;;;;;;;;;;10328529;28;20053;-58
2024/04/08 05:06:31;;;;;;;9.95;6.85;;;;;;;;;;10343602;28;20068;-57
2024/04/08 05:11:29;;;;;;;9.82;8.02;;;;;;;;;;10353349;28;20068;-56
2024/04/08 05:16:26;;;;;;;17.02;10.45;;;;;;;;;;10332974;28;20060;-59
2024/04/08 05:21:24;;;;;;;12.88;9.63;;;;;;;;;;10321058;28;20074;-58
2024/04/08 05:26:22;;;;;;;19.42;8.55;;;;;;;;;;10330482;28;20114;-57
2024/04/08 05:31:20;;;;;;;6.18;5.07;;;;;;;;;;10329574;28;20072;-58
2024/04/08 05:36:17;;;;;;;18.00;7.80;;;;;;;;;;10333916;28;20071;-56
2024/04/08 05:41:15;;;;;;;16.55;9.32;;;;;;;;;;10331811;28;20080;-57
2024/04/08 05:46:14;;;;;;;6.78;5.45;;;;;;;;;;10338070;28;20527;-57
2024/04/08 05:51:14;;;;;;;9.75;8.82;;;;;;;;;;10341239;28;20079;-55
2024/04/08 05:56:11;;;;;;;18.48;9.30;;;;;;;;;;10336298;28;20599;-58
2024/04/08 06:01:09;;;;;;;14.95;8.35;;;;;;;;;;10331718;28;20067;-57
2024/04/08 06:06:08;;;;;;;13.20;8.10;;;;;;;;;;10324600;28;20075;-57
2024/04/08 06:11:06;;;;;;;7.57;6.80;;;;;;;;;;10331112;28;20056;-57
2024/04/08 06:16:03;;;;;;;8.20;6.85;;;;;;;;;;10328815;28;20468;-57
2024/04/08 06:21:01;;;;;;;10.40;6.75;;;;;;;;;;10326263;28;20080;-56
2024/04/08 06:26:00;;;;;;;13.23;5.95;;;;;;;;;;10335638;28;20075;-56
2024/04/08 06:30:58;;;;;;;10.52;5.03;;;;;;;;;;10354820;28;20130;-58
2024/04/08 06:35:55;;;;;;;11.38;4.80;;;;;;;;;;10339129;28;20445;-59
2024/04/08 06:40:53;;;;;;;7.13;4.95;;;;;;;;;;10362815;28;20071;-57
2024/04/08 06:45:58;;;;;;;5.07;4.38;;;;;;;;;;10357890;28;20108;-57
2024/04/08 06:50:57;;;;;;;5.90;4.25;;;;;;;;;;10357423;28;20072;-58
2024/04/08 06:55:55;;;;;;;6.60;4.32;;;;;;;;;;10353151;28;20080;-58
2024/04/08 07:00:52;;;;;;;5.63;4.68;;;;;;;;;;10358829;28;20524;-58
2024/04/08 07:05:51;;;;;;;10.93;5.47;;;;;;;;;;10355635;28;20093;-55
2024/04/08 07:10:49;;;;;;;11.88;4.45;;;;;;;;;;10341850;28;20076;-55
2024/04/08 07:15:53;;;;;;;8.32;6.28;;;;;;;;;;10361133;28;20661;-58
2024/04/08 07:20:52;;;;;;;7.80;4.95;;;;;;;;;;10352118;28;20040;-57
2024/04/08 07:25:51;;;;;;;5.97;4.85;;;;;;;;;;10337551;28;20509;-57
2024/04/08 07:30:49;;;;;;;7.88;5.18;;;;;;;;;;10357284;28;20056;-56
2024/04/08 07:35:46;;;;;;;6.68;4.47;;;;;;;;;;10354058;28;20148;-59
2024/04/08 07:40:45;;;;;;;5.65;5.00;;;;;;;;;;10323856;28;20084;-59
2024/04/08 07:45:43;;;;;;;9.27;5.75;;;;;;;;;;10325836;28;20080;-58
2024/04/08 07:50:40;;;;;;;5.90;4.28;;;;;;;;;;10328056;28;20086;-54
2024/04/08 07:55:37;;;;;;;8.50;6.95;;;;;;;;;;10357016;28;20078;-57
2024/04/08 08:00:36;;;;;;;84.10;77.13;;;;;;;;;;10362273;28;20051;-57
2024/04/08 08:05:34;;;;;;;4.85;4.40;;;;;;;;;;10329197;28;20493;-60
2024/04/08 08:10:32;;;;;;;4.65;4.20;;;;;;;;;;10341356;28;20474;-57
2024/04/08 08:15:30;;;;;;;6.70;4.20;;;;;;;;;;10323376;28;20060;-54
2024/04/08 08:20:30;;;;;;;7.95;4.90;;;;;;;;;;10336223;28;20076;-58
2024/04/08 08:25:27;;;;;;;8.45;4.25;;;;;;;;;;10330995;28;20547;-58
2024/04/08 08:30:25;;;;;;;6.47;4.75;;;;;;;;;;10337211;28;20501;-56
2024/04/08 08:35:23;;;;;;;5.55;3.80;;;;;;;;;;10335012;28;20056;-56
2024/04/08 08:40:22;;;;;;;6.63;3.20;;;;;;;;;;10332225;28;20075;-58
2024/04/08 08:45:20;;;;;;;5.28;3.17;;;;;;;;;;10329952;28;20064;-54
2024/04/08 08:50:17;;;;;;;6.05;3.83;;;;;;;;;;10329214;28;20083;-59
2024/04/08 08:55:19;;;;;;;7.55;3.83;;;;;;;;;;10332744;28;20095;-58
2024/04/08 09:00:18;;;;;;;8.27;4.25;;;;;;;;;;10338605;28;20196;-58
2024/04/08 09:05:15;;;;;;;10.18;4.47;;;;;;;;;;10337827;28;20699;-57
2024/04/08 09:10:13;;;;;;;5.07;3.42;;;;;;;;;;10344071;28;20072;-57
2024/04/08 09:15:12;;;;;;;6.57;3.28;;;;;;;;;;10331309;28;20071;-58
2024/04/08 09:20:12;;;;;;;4.90;3.50;;;;;;;;;;10337516;28;20071;-59
2024/04/08 09:25:13;;;;;;;4.93;3.03;;;;;;;;;;10329836;28;20608;-57
2024/04/08 09:30:12;;;;;;;5.90;4.03;;;;;;;;;;10356208;28;20559;-58
2024/04/08 09:35:12;;;;;;;9.07;4.13;;;;;;;;;;10329337;28;20477;-57
2024/04/08 09:40:12;;;;;;;5.07;3.83;;;;;;;;;;10333732;28;20091;-58
2024/04/08 09:45:10;;;;;;;4.78;3.60;;;;;;;;;;10331485;28;20074;-58
2024/04/08 09:50:11;;;;;;;6.43;3.75;;;;;;;;;;10333310;28;20555;-58
2024/04/08 09:55:10;;;;;;;11.20;3.78;;;;;;;;;;10331015;28;20516;-58
2024/04/08 10:00:09;;;;;;;4.15;3.03;;;;;;;;;;10332061;28;20074;-57
2024/04/08 10:05:07;;;;;;;11.27;3.80;;;;;;;;;;10333626;28;20082;-58
2024/04/08 10:10:05;;;;;;;8.13;3.40;;;;;;;;;;10313009;28;20509;-58
2024/04/08 10:15:11;;;;;;;3.28;2.90;;;;;;;;;;10327121;28;20080;-56
2024/04/08 10:20:11;;;;;;;8.07;2.50;;;;;;;;;;10355753;28;20086;-59
2024/04/08 10:25:23;;;;;;;3.45;2.40;;;;;;;;;;10336566;28;20079;-59
2024/04/08 10:30:22;;;;;;;6.38;2.45;;;;;;;;;;10326205;28;20083;-59
2024/04/08 10:36:48;;;;;;;4.40;2.22;;;;;;;;;;11222359;25;20334;-57
2024/04/08 10:41:48;;;;;;;5.18;2.05;;;;;;;;;;11223687;25;20025;-58
2024/04/08 10:46:49;;;;;;;6.88;4.38;;;;;;;;;;11227916;25;20038;-59
2024/04/08 10:51:52;;;;;;;2.22;1.98;;;;;;;;;;11223614;25;20025;-58
2024/04/08 10:56:52;;;;;;;1.08;1.08;;;;;;;;;;11214773;25;20479;-57
2024/04/08 11:01:53;;;;;;;2.65;1.30;;;;;;;;;;11209063;25;20483;-58
2024/04/08 11:06:56;;;;;;;1.65;1.55;;;;;;;;;;11218452;25;20026;-57
2024/04/08 11:11:56;;;;;;;4.95;2.38;;;;;;;;;;11219319;25;20026;-58
2024/04/08 11:16:59;;;;;;;4.45;1.92;;;;;;;;;;11202015;25;20035;-58
2024/04/08 11:22:02;;;;;;;2.17;1.80;;;;;;;;;;11218642;25;20030;-59
2024/04/08 11:27:04;;;;;;;2.67;2.25;;;;;;;;;;11216920;25;20025;-58
2024/04/08 11:32:08;;;;;;;4.18;1.38;;;;;;;;;;11220825;25;20026;-58
2024/04/08 11:37:12;;;;;;;3.57;1.60;;;;;;;;;;11245346;25;20033;-60
2024/04/08 11:42:13;;;;;;;1.55;1.42;;;;;;;;;;11210067;25;20026;-59
2024/04/08 11:47:18;;;;;;;2.92;2.60;;;;;;;;;;11193121;25;20030;-60
2024/04/08 11:52:21;;;;;;;1.55;1.30;;;;;;;;;;11190990;26;20034;-60
2024/04/08 11:57:21;;;;;;;3.55;1.40;;;;;;;;;;11172828;26;20375;-59
2024/04/08 12:02:24;;;;;;;3.03;1.27;;;;;;;;;;11183238;26;20002;-60
2024/04/08 12:07:27;;;;;;;2.63;1.35;;;;;;;;;;11187359;26;20042;-60
2024/04/08 12:12:27;;;;;;;1.98;1.60;;;;;;;;;;11188408;26;20030;-58
2024/04/08 12:17:28;;;;;;;2.38;1.50;;;;;;;;;;11185216;26;20037;-60
2024/04/08 12:22:31;;;;;;;2.20;1.40;;;;;;;;;;11188446;26;19998;-59
2024/04/08 12:27:31;;;;;;;1.60;1.38;;;;;;;;;;11187218;26;20033;-59
2024/04/08 12:32:31;;;;;;;1.73;1.55;;;;;;;;;;11193772;26;20034;-59
2024/04/08 12:37:34;;;;;;;4.60;1.48;;;;;;;;;;11188177;26;20034;-58
2024/04/08 12:42:34;;;;;;;2.30;1.33;;;;;;;;;;11191653;26;20021;-58
2024/04/08 12:47:38;;;;;;;2.13;1.45;;;;;;;;;;11190781;26;20025;-58
2024/04/08 12:52:41;;;;;;;4.83;2.13;;;;;;;;;;11179202;26;20031;-59
2024/04/08 12:57:41;;;;;;;2.40;1.17;;;;;;;;;;11187929;26;20042;-58
2024/04/08 13:02:43;;;;;;;4.05;1.27;;;;;;;;;;11190939;26;20038;-57
2024/04/08 13:07:47;;;;;;;2.03;1.40;;;;;;;;;;11194109;26;20692;-59
2024/04/08 13:12:47;;;;;;;2.08;1.05;;;;;;;;;;11185392;26;20025;-59
2024/04/08 13:17:47;;;;;;;2.20;1.40;;;;;;;;;;11184284;26;20038;-59
2024/04/08 13:22:50;;;;;;;2.95;2.00;;;;;;;;;;11182643;26;20092;-58
2024/04/08 13:27:51;;;;;;;1.98;1.38;;;;;;;;;;11188255;26;20080;-60
2024/04/08 13:32:52;;;;;;;4.57;1.95;;;;;;;;;;11183941;26;20482;-61
2024/04/08 13:37:55;;;;;;;1.88;1.38;;;;;;;;;;11182082;26;20034;-59
2024/04/08 13:42:56;;;;;;;2.10;1.67;;;;;;;;;;11182831;26;20479;-61
2024/04/08 13:47:56;;;;;;;2.45;1.23;;;;;;;;;;11187723;26;20274;-59
2024/04/08 13:52:59;;;;;;;2.60;1.35;;;;;;;;;;11190019;26;20373;-58
2024/04/08 13:57:59;;;;;;;0.90;0.90;;;;;;;;;;11188985;26;20045;-58
2024/04/08 14:03:00;;;;;;;2.17;1.50;;;;;;;;;;11182628;26;20066;-59
2024/04/08 14:08:03;;;;;;;2.42;1.10;;;;;;;;;;11176264;26;20067;-60
2024/04/08 14:13:03;;;;;;;2.55;1.20;;;;;;;;;;11176144;26;20026;-59
2024/04/08 14:18:03;;;;;;;2.53;1.45;;;;;;;;;;11167957;26;20458;-58
2024/04/08 14:23:07;;;;;;;1.70;1.33;;;;;;;;;;11177449;26;20011;-58
2024/04/08 14:28:09;;;;;;;2.05;1.38;;;;;;;;;;11177785;26;20026;-59
2024/04/08 14:33:10;;;;;;;2.55;1.70;;;;;;;;;;11177158;26;20492;-58
2024/04/08 14:38:13;;;;;;;1.80;1.67;;;;;;;;;;11159532;26;20034;-59
2024/04/08 14:43:33;;;;;;;2.40;1.35;;;;;;;;;;11176437;26;20620;-59
2024/04/08 14:48:50;;;;;;;1.90;1.52;;;;;;;;;;11166813;26;20053;-58
2024/04/08 14:53:53;;;;;;;1.65;1.08;;;;;;;;;;11172083;26;20057;-59
2024/04/08 14:58:53;;;;;;;2.10;1.23;;;;;;;;;;11167469;26;19998;-59
2024/04/08 15:03:56;;;;;;;3.38;1.70;;;;;;;;;;11165733;26;19997;-59
2024/04/08 15:08:59;;;;;;;3.42;1.45;;;;;;;;;;11159612;26;20017;-59
2024/04/08 15:13:59;;;;;;;2.70;1.40;;;;;;;;;;11162538;25;20012;-60
2024/04/08 15:19:00;;;;;;;3.63;1.50;;;;;;;;;;11146502;26;20648;-56
2024/04/08 15:24:08;;;;;;;4.72;1.73;;;;;;;;;;11180140;26;20046;-59
2024/04/08 15:29:09;;;;;;;3.40;2.45;;;;;;;;;;11165549;26;20047;-59
2024/04/08 15:34:10;;;;;;;2.97;1.38;;;;;;;;;;11179436;26;20491;-59
2024/04/08 15:39:14;;;;;;;3.38;1.58;;;;;;;;;;11182076;26;19993;-59
2024/04/08 15:44:14;;;;;;;4.28;1.30;;;;;;;;;;11179438;25;20033;-60
2024/04/08 15:49:14;;;;;;;1.88;1.23;;;;;;;;;;11185112;26;20034;-59
2024/04/08 15:54:18;;;;;;;1.20;1.08;;;;;;;;;;11187027;26;20010;-59
2024/04/08 15:59:18;;;;;;;1.95;1.20;;;;;;;;;;11181634;26;20388;-61
2024/04/08 16:04:18;;;;;;;5.55;1.50;;;;;;;;;;11188627;26;20037;-61
2024/04/08 16:09:22;;;;;;;4.28;1.40;;;;;;;;;;11182755;26;20313;-58
2024/04/08 16:14:22;;;;;;;1.63;1.20;;;;;;;;;;11186069;26;20026;-57
2024/04/08 16:19:23;;;;;;;2.28;1.75;;;;;;;;;;11182427;26;20025;-60
2024/04/08 16:24:26;;;;;;;1.67;1.50;;;;;;;;;;11190472;26;20022;-59
2024/04/08 16:29:26;;;;;;;1.45;1.10;;;;;;;;;;11185653;26;20028;-60
2024/04/08 16:34:27;;;;;;;1.35;0.85;;;;;;;;;;11192823;26;20030;-59
2024/04/08 16:39:30;;;;;;;2.95;1.42;;;;;;;;;;11189955;26;20027;-59
2024/04/08 16:44:31;;;;;;;5.90;1.83;;;;;;;;;;11193776;26;20021;-58
2024/04/08 16:49:32;;;;;;;4.38;1.30;;;;;;;;;;11186177;26;20033;-59
2024/04/08 16:54:40;;;;;;;5.03;2.42;;;;;;;;;;11191333;25;20029;-59
2024/04/08 16:59:41;;;;;;;5.28;1.80;;;;;;;;;;11166974;26;20021;-60
2024/04/08 17:04:41;;;;;;;7.10;2.35;;;;;;;;;;11187834;26;20022;-60
2024/04/08 17:09:44;;;;;;;8.38;3.15;;;;;;;;;;11184044;26;20030;-59
2024/04/08 17:14:45;;;;;;;10.50;2.97;;;;;;;;;;11180080;26;20026;-59
2024/04/08 17:19:45;;;;;;;9.85;2.40;;;;;;;;;;11184599;26;20030;-59
2024/04/08 17:24:49;;;;;;;5.57;2.78;;;;;;;;;;11172526;26;20042;-59
2024/04/08 17:29:49;;;;;;;4.90;3.17;;;;;;;;;;11176186;26;20734;-59
2024/04/08 17:34:52;;;;;;;5.78;2.72;;;;;;;;;;11170894;26;20495;-58
2024/04/08 17:39:57;;;;;;;4.05;3.50;;;;;;;;;;11182901;26;20030;-60
2024/04/08 17:44:58;;;;;;;4.20;3.75;;;;;;;;;;11182977;26;20029;-60
2024/04/08 17:49:58;;;;;;;7.95;5.45;;;;;;;;;;11184351;25;20557;-59
2024/04/08 17:55:01;;;;;;;11.88;3.60;;;;;;;;;;11182877;26;20498;-59
2024/04/08 18:00:02;;;;;;;3.30;2.80;;;;;;;;;;11186489;25;20026;-60
2024/04/08 18:05:03;;;;;;;6.55;3.53;;;;;;;;;;11186631;26;20034;-60
2024/04/08 18:10:07;;;;;;;3.17;1.88;;;;;;;;;;11182496;26;20045;-59
2024/04/08 18:15:07;;;;;;;3.43;1.60;;;;;;;;;;11178981;26;20376;-60
2024/04/08 18:20:08;;;;;;;2.75;2.10;;;;;;;;;;11180054;26;20027;-59
2024/04/08 18:25:11;;;;;;;2.38;1.10;;;;;;;;;;11175544;26;20080;-61
2024/04/08 18:30:12;;;;;;;2.72;1.65;;;;;;;;;;11170216;26;20495;-59
2024/04/08 18:35:12;;;;;;;2.38;1.90;;;;;;;;;;11185174;25;20031;-59
2024/04/08 18:40:16;;;;;;;1.60;1.38;;;;;;;;;;11169293;26;20026;-60
2024/04/08 18:45:16;;;;;;;4.88;1.55;;;;;;;;;;11185016;26;20042;-59
2024/04/08 18:50:16;;;;;;;3.05;2.00;;;;;;;;;;11179383;25;20033;-57
2024/04/08 18:55:20;;;;;;;4.35;1.45;;;;;;;;;;11194757;26;20026;-58
2024/04/08 19:00:20;;;;;;;2.97;1.83;;;;;;;;;;11186391;26;20053;-60
2024/04/08 19:05:21;;;;;;;3.28;2.40;;;;;;;;;;11187829;26;19997;-60
2024/04/08 19:10:24;;;;;;;2.03;1.80;;;;;;;;;;11186576;26;20020;-60
2024/04/08 19:15:24;;;;;;;1.77;1.60;;;;;;;;;;11154627;26;20016;-58
2024/04/08 19:20:25;;;;;;;2.03;1.40;;;;;;;;;;11159383;26;19997;-57
2024/04/08 19:25:28;;;;;;;2.13;1.33;;;;;;;;;;11187584;26;20029;-58
2024/04/08 19:30:28;;;;;;;2.10;1.45;;;;;;;;;;11187162;26;20498;-59
2024/04/08 19:35:28;;;;;;;1.65;1.38;;;;;;;;;;11188807;26;20022;-59
2024/04/08 19:40:33;;;;;;;3.17;1.30;;;;;;;;;;11179775;26;19994;-57
2024/04/08 19:45:33;;;;;;;1.98;1.63;;;;;;;;;;11180161;26;20349;-59
2024/04/08 19:50:40;;;;;;;2.30;2.10;;;;;;;;;;11178016;26;19994;-58
2024/04/08 19:55:44;;;;;;;5.85;4.82;;;;;;;;;;11182484;26;19998;-57
2024/04/08 20:00:44;;;;;;;1.70;1.58;;;;;;;;;;11188950;26;20038;-59
2024/04/08 20:05:45;;;;;;;5.40;1.33;;;;;;;;;;11181948;26;20016;-58
2024/04/08 20:10:48;;;;;;;5.75;1.27;;;;;;;;;;11187578;26;20038;-59
2024/04/08 20:15:48;;;;;;;6.47;4.18;;;;;;;;;;11189757;26;20118;-59
2024/04/08 20:20:49;;;;;;;2.95;2.17;;;;;;;;;;11188909;25;20058;-60
2024/04/08 20:25:52;;;;;;;6.90;2.47;;;;;;;;;;11188122;26;20037;-60
2024/04/08 20:30:56;;;;;;;1.73;1.30;;;;;;;;;;11184128;26;20038;-59
2024/04/08 20:35:56;;;;;;;2.80;2.50;;;;;;;;;;11192215;26;20042;-59
2024/04/08 20:41:01;;;;;;;2.78;1.45;;;;;;;;;;11190748;26;20470;-58
2024/04/08 20:46:01;;;;;;;4.13;1.75;;;;;;;;;;11175834;26;20030;-59
2024/04/08 20:51:02;;;;;;;3.55;1.40;;;;;;;;;;11191962;26;20029;-59
2024/04/08 20:56:06;;;;;;;1.30;1.20;;;;;;;;;;11189698;25;20093;-58
2024/04/08 21:01:07;;;;;;;2.25;1.40;;;;;;;;;;11189595;26;20026;-58
2024/04/08 21:06:08;;;;;;;4.03;1.70;;;;;;;;;;11184537;26;20029;-58
2024/04/08 21:11:12;;;;;;;2.13;1.40;;;;;;;;;;11189850;26;20030;-60
2024/04/08 21:16:13;;;;;;;1.80;1.55;;;;;;;;;;11187178;26;20030;-58
2024/04/08 21:21:13;;;;;;;1.15;1.05;;;;;;;;;;11190062;26;20480;-59
2024/04/08 21:26:18;;;;;;;3.35;1.40;;;;;;;;;;11187169;26;20025;-58
2024/04/08 21:31:21;;;;;;;3.97;1.45;;;;;;;;;;11191281;26;20041;-58
2024/04/08 21:36:21;;;;;;;2.08;1.73;;;;;;;;;;11189237;26;20608;-58
2024/04/08 21:41:24;;;;;;;2.13;1.67;;;;;;;;;;11184504;26;20035;-57
2024/04/08 21:46:25;;;;;;;4.63;1.40;;;;;;;;;;11177390;26;20026;-57
2024/04/08 21:51:26;;;;;;;1.42;1.33;;;;;;;;;;11154421;26;20487;-58
2024/04/08 21:56:29;;;;;;;3.13;1.52;;;;;;;;;;11150702;26;20046;-59
2024/04/08 22:01:29;;;;;;;2.30;1.30;;;;;;;;;;11148065;26;20864;-58
2024/04/08 22:06:31;;;;;;;2.90;1.30;;;;;;;;;;11186396;25;20042;-58
2024/04/08 22:11:34;;;;;;;2.72;1.35;;;;;;;;;;11192206;26;20025;-59
2024/04/08 22:16:34;;;;;;;3.80;1.63;;;;;;;;;;11194142;26;20029;-59
2024/04/08 22:21:35;;;;;;;1.77;1.60;;;;;;;;;;11191166;26;20021;-59
2024/04/08 22:26:40;;;;;;;1.75;1.65;;;;;;;;;;11186383;26;20054;-59
2024/04/08 22:31:40;;;;;;;3.05;1.90;;;;;;;;;;11185952;26;20367;-59
2024/04/08 22:36:41;;;;;;;2.80;1.52;;;;;;;;;;11184200;26;20034;-59
2024/04/08 22:41:44;;;;;;;2.92;1.80;;;;;;;;;;11185845;26;20032;-59
2024/04/08 22:46:52;;;;;;;2.00;1.77;;;;;;;;;;11185772;26;20038;-59
2024/04/08 22:51:52;;;;;;;3.53;1.50;;;;;;;;;;11181927;26;20037;-59
2024/04/08 22:56:55;;;;;;;2.42;2.15;;;;;;;;;;11179697;26;20029;-59
2024/04/08 23:01:56;;;;;;;3.28;2.38;;;;;;;;;;11188549;26;20035;-58
2024/04/08 23:06:56;;;;;;;3.42;1.90;;;;;;;;;;11186813;26;20476;-59
2024/04/08 23:12:00;;;;;;;2.03;1.80;;;;;;;;;;11188374;26;20026;-59
2024/04/08 23:17:00;;;;;;;3.80;1.92;;;;;;;;;;11185462;25;20031;-59
2024/04/08 23:22:00;;;;;;;2.65;2.40;;;;;;;;;;11187587;25;20046;-59
2024/04/08 23:27:04;;;;;;;1.95;1.67;;;;;;;;;;11182575;26;20477;-60
2024/04/08 23:32:04;;;;;;;3.35;2.00;;;;;;;;;;11188764;26;20030;-59
2024/04/08 23:37:04;;;;;;;1.92;1.65;;;;;;;;;;11190484;26;20033;-59
2024/04/08 23:42:08;;;;;;;3.17;1.58;;;;;;;;;;11191525;25;20040;-59
2024/04/08 23:47:08;;;;;;;4.33;1.70;;;;;;;;;;11196882;26;20369;-60
2024/04/08 23:52:09;;;;;;;2.03;1.50;;;;;;;;;;11192154;26;20029;-60
2024/04/08 23:57:12;;;;;;;2.90;2.08;;;;;;;;;;11190590;26;20475;-59
